sensor_id;sensor_type;location;lat;lon;timestamp;temperature;humidity
16767;DHT22;8501;49.926;8.404;2023-05-07T00:00:33;18.50;99.90
16767;DHT22;8501;49.926;8.404;2023-05-07T00:02:59;18.50;99.90
16767;DHT22;8501;49.926;8.404;2023-05-07T00:05:25;18.50;99.90
16767;DHT22;8501;49.926;8.404;2023-05-07T00:07:51;18.50;99.90
16767;DHT22;8501;49.926;8.404;2023-05-07T00:10:18;18.40;99.90
16767;DHT22;8501;49.926;8.404;2023-05-07T00:12:44;18.40;99.90
16767;DHT22;8501;49.926;8.404;2023-05-07T00:15:10;18.40;99.90
16767;DHT22;8501;49.926;8.404;2023-05-07T00:17:36;18.40;99.90
16767;DHT22;8501;49.926;8.404;2023-05-07T00:20:02;18.30;99.90
16767;DHT22;8501;49.926;8.404;2023-05-07T00:22:29;18.40;99.90
16767;DHT22;8501;49.926;8.404;2023-05-07T00:24:55;18.30;99.90
16767;DHT22;8501;49.926;8.404;2023-05-07T00:27:21;18.40;99.90
16767;DHT22;8501;49.926;8.404;2023-05-07T00:29:47;18.40;99.90
16767;DHT22;8501;49.926;8.404;2023-05-07T00:32:12;18.30;99.90
16767;DHT22;8501;49.926;8.404;2023-05-07T00:34:38;18.30;99.90
16767;DHT22;8501;49.926;8.404;2023-05-07T00:37:05;18.30;99.90
16767;DHT22;8501;49.926;8.404;2023-05-07T00:39:33;18.30;99.90
16767;DHT22;8501;49.926;8.404;2023-05-07T00:41:59;18.20;99.90
16767;DHT22;8501;49.926;8.404;2023-05-07T00:44:26;18.20;99.90
16767;DHT22;8501;49.926;8.404;2023-05-07T00:46:52;18.20;99.90
16767;DHT22;8501;49.926;8.404;2023-05-07T00:49:18;18.20;99.90
16767;DHT22;8501;49.926;8.404;2023-05-07T00:51:44;18.20;99.90
16767;DHT22;8501;49.926;8.404;2023-05-07T00:54:10;18.10;99.90
16767;DHT22;8501;49.926;8.404;2023-05-07T00:56:36;18.10;99.90
16767;DHT22;8501;49.926;8.404;2023-05-07T00:59:03;18.10;99.90
16767;DHT22;8501;49.926;8.404;2023-05-07T01:01:29;18.00;99.90
16767;DHT22;8501;49.926;8.404;2023-05-07T01:03:55;18.00;99.90
16767;DHT22;8501;49.926;8.404;2023-05-07T01:06:21;17.90;99.90
16767;DHT22;8501;49.926;8.404;2023-05-07T01:08:48;17.90;99.90
16767;DHT22;8501;49.926;8.404;2023-05-07T01:11:16;17.90;99.90
16767;DHT22;8501;49.926;8.404;2023-05-07T01:13:44;17.90;99.90
16767;DHT22;8501;49.926;8.404;2023-05-07T01:16:10;17.90;99.90
16767;DHT22;8501;49.926;8.404;2023-05-07T01:18:36;17.90;99.90
16767;DHT22;8501;49.926;8.404;2023-05-07T01:21:04;17.80;99.90
16767;DHT22;8501;49.926;8.404;2023-05-07T01:23:30;17.80;99.90
16767;DHT22;8501;49.926;8.404;2023-05-07T01:25:56;17.80;99.90
16767;DHT22;8501;49.926;8.404;2023-05-07T01:28:21;17.80;99.90
16767;DHT22;8501;49.926;8.404;2023-05-07T01:30:52;17.80;99.90
16767;DHT22;8501;49.926;8.404;2023-05-07T01:33:22;17.70;99.90
16767;DHT22;8501;49.926;8.404;2023-05-07T01:35:50;17.70;99.90
16767;DHT22;8501;49.926;8.404;2023-05-07T01:38:17;17.70;99.90
16767;DHT22;8501;49.926;8.404;2023-05-07T01:40:43;17.60;99.90
16767;DHT22;8501;49.926;8.404;2023-05-07T01:43:09;17.70;99.90
16767;DHT22;8501;49.926;8.404;2023-05-07T01:45:36;17.70;99.90
16767;DHT22;8501;49.926;8.404;2023-05-07T01:48:03;17.70;99.90
16767;DHT22;8501;49.926;8.404;2023-05-07T01:50:29;17.60;99.90
16767;DHT22;8501;49.926;8.404;2023-05-07T01:52:56;17.50;99.90
16767;DHT22;8501;49.926;8.404;2023-05-07T01:55:21;17.50;99.90
16767;DHT22;8501;49.926;8.404;2023-05-07T01:57:47;17.50;99.90
16767;DHT22;8501;49.926;8.404;2023-05-07T02:00:13;17.50;99.90
16767;DHT22;8501;49.926;8.404;2023-05-07T02:02:38;17.50;99.90
16767;DHT22;8501;49.926;8.404;2023-05-07T02:05:04;17.50;99.90
16767;DHT22;8501;49.926;8.404;2023-05-07T02:07:30;17.50;99.90
16767;DHT22;8501;49.926;8.404;2023-05-07T02:09:55;17.50;99.90
16767;DHT22;8501;49.926;8.404;2023-05-07T02:12:22;17.50;99.90
16767;DHT22;8501;49.926;8.404;2023-05-07T02:14:47;17.50;99.90
16767;DHT22;8501;49.926;8.404;2023-05-07T02:17:13;17.60;99.90
16767;DHT22;8501;49.926;8.404;2023-05-07T02:19:38;17.50;99.90
16767;DHT22;8501;49.926;8.404;2023-05-07T02:22:04;17.50;99.90
16767;DHT22;8501;49.926;8.404;2023-05-07T02:24:29;17.50;99.90
16767;DHT22;8501;49.926;8.404;2023-05-07T02:26:55;17.50;99.90
16767;DHT22;8501;49.926;8.404;2023-05-07T02:29:21;17.50;99.90
16767;DHT22;8501;49.926;8.404;2023-05-07T02:31:46;17.50;99.90
16767;DHT22;8501;49.926;8.404;2023-05-07T02:34:16;17.40;99.90
16767;DHT22;8501;49.926;8.404;2023-05-07T02:36:41;17.40;99.90
16767;DHT22;8501;49.926;8.404;2023-05-07T02:39:07;17.40;99.90
16767;DHT22;8501;49.926;8.404;2023-05-07T02:41:33;17.40;99.90
16767;DHT22;8501;49.926;8.404;2023-05-07T02:43:58;17.40;99.90
16767;DHT22;8501;49.926;8.404;2023-05-07T02:46:24;17.40;99.90
16767;DHT22;8501;49.926;8.404;2023-05-07T02:48:49;17.40;99.90
16767;DHT22;8501;49.926;8.404;2023-05-07T02:51:19;17.40;99.90
16767;DHT22;8501;49.926;8.404;2023-05-07T02:53:45;17.40;99.90
16767;DHT22;8501;49.926;8.404;2023-05-07T02:56:11;17.50;99.90
16767;DHT22;8501;49.926;8.404;2023-05-07T02:58:37;17.50;99.90
16767;DHT22;8501;49.926;8.404;2023-05-07T03:01:07;17.50;99.90
16767;DHT22;8501;49.926;8.404;2023-05-07T03:03:33;17.40;99.90
16767;DHT22;8501;49.926;8.404;2023-05-07T03:05:58;17.40;99.90
16767;DHT22;8501;49.926;8.404;2023-05-07T03:08:24;17.30;99.90
16767;DHT22;8501;49.926;8.404;2023-05-07T03:10:50;17.40;99.90
16767;DHT22;8501;49.926;8.404;2023-05-07T03:13:15;17.40;99.90
16767;DHT22;8501;49.926;8.404;2023-05-07T03:15:41;17.40;99.90
16767;DHT22;8501;49.926;8.404;2023-05-07T03:18:07;17.40;99.90
16767;DHT22;8501;49.926;8.404;2023-05-07T03:20:32;17.30;99.90
16767;DHT22;8501;49.926;8.404;2023-05-07T03:22:58;17.30;99.90
16767;DHT22;8501;49.926;8.404;2023-05-07T03:25:24;17.30;99.90
16767;DHT22;8501;49.926;8.404;2023-05-07T03:27:49;17.40;99.90
16767;DHT22;8501;49.926;8.404;2023-05-07T03:30:15;17.30;99.90
16767;DHT22;8501;49.926;8.404;2023-05-07T03:32:40;17.30;99.90
16767;DHT22;8501;49.926;8.404;2023-05-07T03:35:06;17.30;99.90
16767;DHT22;8501;49.926;8.404;2023-05-07T03:37:32;17.30;99.90
16767;DHT22;8501;49.926;8.404;2023-05-07T03:39:58;17.30;99.90
16767;DHT22;8501;49.926;8.404;2023-05-07T03:42:23;17.30;99.90
16767;DHT22;8501;49.926;8.404;2023-05-07T03:44:49;17.30;99.90
16767;DHT22;8501;49.926;8.404;2023-05-07T03:47:14;17.30;99.90
16767;DHT22;8501;49.926;8.404;2023-05-07T03:49:40;17.30;99.90
16767;DHT22;8501;49.926;8.404;2023-05-07T03:52:06;17.30;99.90
16767;DHT22;8501;49.926;8.404;2023-05-07T03:54:31;17.40;99.90
16767;DHT22;8501;49.926;8.404;2023-05-07T03:56:57;17.30;99.90
16767;DHT22;8501;49.926;8.404;2023-05-07T03:59:23;17.30;99.90
16767;DHT22;8501;49.926;8.404;2023-05-07T04:01:48;17.20;99.90
16767;DHT22;8501;49.926;8.404;2023-05-07T04:04:14;17.20;99.90
16767;DHT22;8501;49.926;8.404;2023-05-07T04:06:40;17.30;99.90
16767;DHT22;8501;49.926;8.404;2023-05-07T04:09:06;17.30;99.90
16767;DHT22;8501;49.926;8.404;2023-05-07T04:11:32;17.30;99.90
16767;DHT22;8501;49.926;8.404;2023-05-07T04:13:57;17.20;99.90
16767;DHT22;8501;49.926;8.404;2023-05-07T04:16:23;17.10;99.90
16767;DHT22;8501;49.926;8.404;2023-05-07T04:18:48;17.10;99.90
16767;DHT22;8501;49.926;8.404;2023-05-07T04:21:18;17.00;99.90
16767;DHT22;8501;49.926;8.404;2023-05-07T04:23:45;17.10;99.90
16767;DHT22;8501;49.926;8.404;2023-05-07T04:26:10;17.10;99.90
16767;DHT22;8501;49.926;8.404;2023-05-07T04:28:36;17.10;99.90
16767;DHT22;8501;49.926;8.404;2023-05-07T04:31:02;17.10;99.90
16767;DHT22;8501;49.926;8.404;2023-05-07T04:33:27;17.10;99.90
16767;DHT22;8501;49.926;8.404;2023-05-07T04:35:53;17.20;99.90
16767;DHT22;8501;49.926;8.404;2023-05-07T04:38:19;17.20;99.90
16767;DHT22;8501;49.926;8.404;2023-05-07T04:40:44;17.20;99.90
16767;DHT22;8501;49.926;8.404;2023-05-07T04:43:10;17.10;99.90
16767;DHT22;8501;49.926;8.404;2023-05-07T04:45:36;17.00;99.90
16767;DHT22;8501;49.926;8.404;2023-05-07T04:48:02;17.10;99.90
16767;DHT22;8501;49.926;8.404;2023-05-07T04:50:27;17.10;99.90
16767;DHT22;8501;49.926;8.404;2023-05-07T04:52:53;17.10;99.90
16767;DHT22;8501;49.926;8.404;2023-05-07T04:55:18;17.10;99.90
16767;DHT22;8501;49.926;8.404;2023-05-07T04:57:44;17.00;99.90
16767;DHT22;8501;49.926;8.404;2023-05-07T05:00:11;17.00;99.90
16767;DHT22;8501;49.926;8.404;2023-05-07T05:02:39;17.00;99.90
16767;DHT22;8501;49.926;8.404;2023-05-07T05:05:05;17.10;99.90
16767;DHT22;8501;49.926;8.404;2023-05-07T05:07:31;17.10;99.90
16767;DHT22;8501;49.926;8.404;2023-05-07T05:09:56;17.10;99.90
16767;DHT22;8501;49.926;8.404;2023-05-07T05:12:23;17.10;99.90
16767;DHT22;8501;49.926;8.404;2023-05-07T05:14:48;17.10;99.90
16767;DHT22;8501;49.926;8.404;2023-05-07T05:17:14;17.10;99.90
16767;DHT22;8501;49.926;8.404;2023-05-07T05:19:39;17.10;99.90
16767;DHT22;8501;49.926;8.404;2023-05-07T05:22:05;17.10;99.90
16767;DHT22;8501;49.926;8.404;2023-05-07T05:24:31;17.00;99.90
16767;DHT22;8501;49.926;8.404;2023-05-07T05:26:56;17.10;99.90
16767;DHT22;8501;49.926;8.404;2023-05-07T05:29:22;17.10;99.90
16767;DHT22;8501;49.926;8.404;2023-05-07T05:31:48;17.10;99.90
16767;DHT22;8501;49.926;8.404;2023-05-07T05:34:13;17.10;99.90
16767;DHT22;8501;49.926;8.404;2023-05-07T05:36:39;17.10;99.90
16767;DHT22;8501;49.926;8.404;2023-05-07T05:39:04;17.20;99.90
16767;DHT22;8501;49.926;8.404;2023-05-07T05:41:30;17.20;99.90
16767;DHT22;8501;49.926;8.404;2023-05-07T05:43:55;17.20;99.90
16767;DHT22;8501;49.926;8.404;2023-05-07T05:46:21;17.20;99.90
16767;DHT22;8501;49.926;8.404;2023-05-07T05:48:47;17.20;99.90
16767;DHT22;8501;49.926;8.404;2023-05-07T05:51:12;17.30;99.90
16767;DHT22;8501;49.926;8.404;2023-05-07T05:53:38;17.30;99.90
16767;DHT22;8501;49.926;8.404;2023-05-07T05:56:04;17.30;99.90
16767;DHT22;8501;49.926;8.404;2023-05-07T05:58:29;17.30;99.90
16767;DHT22;8501;49.926;8.404;2023-05-07T06:00:55;17.30;99.90
16767;DHT22;8501;49.926;8.404;2023-05-07T06:03:21;17.40;99.90
16767;DHT22;8501;49.926;8.404;2023-05-07T06:05:47;17.40;99.90
16767;DHT22;8501;49.926;8.404;2023-05-07T06:08:13;17.40;99.90
16767;DHT22;8501;49.926;8.404;2023-05-07T06:10:38;17.40;99.90
16767;DHT22;8501;49.926;8.404;2023-05-07T06:13:04;17.40;99.90
16767;DHT22;8501;49.926;8.404;2023-05-07T06:15:30;17.40;99.90
16767;DHT22;8501;49.926;8.404;2023-05-07T06:17:55;17.40;99.90
16767;DHT22;8501;49.926;8.404;2023-05-07T06:20:22;17.40;99.90
16767;DHT22;8501;49.926;8.404;2023-05-07T06:22:48;17.40;99.90
16767;DHT22;8501;49.926;8.404;2023-05-07T06:25:14;17.40;99.90
16767;DHT22;8501;49.926;8.404;2023-05-07T06:27:40;17.40;99.90
16767;DHT22;8501;49.926;8.404;2023-05-07T06:30:06;17.40;99.90
16767;DHT22;8501;49.926;8.404;2023-05-07T06:32:32;17.40;99.90
16767;DHT22;8501;49.926;8.404;2023-05-07T06:34:57;17.50;99.90
16767;DHT22;8501;49.926;8.404;2023-05-07T06:37:23;17.50;99.90
16767;DHT22;8501;49.926;8.404;2023-05-07T06:39:48;17.50;99.90
16767;DHT22;8501;49.926;8.404;2023-05-07T06:42:14;17.50;99.90
16767;DHT22;8501;49.926;8.404;2023-05-07T06:44:39;17.50;99.90
16767;DHT22;8501;49.926;8.404;2023-05-07T06:47:05;17.50;99.90
16767;DHT22;8501;49.926;8.404;2023-05-07T06:49:31;17.50;99.90
16767;DHT22;8501;49.926;8.404;2023-05-07T06:51:56;17.50;99.90
16767;DHT22;8501;49.926;8.404;2023-05-07T06:54:22;17.60;99.90
16767;DHT22;8501;49.926;8.404;2023-05-07T06:56:48;17.60;99.90
16767;DHT22;8501;49.926;8.404;2023-05-07T06:59:14;17.60;99.90
16767;DHT22;8501;49.926;8.404;2023-05-07T07:01:39;17.60;99.90
16767;DHT22;8501;49.926;8.404;2023-05-07T07:04:05;17.60;99.90
16767;DHT22;8501;49.926;8.404;2023-05-07T07:06:31;17.60;99.90
16767;DHT22;8501;49.926;8.404;2023-05-07T07:08:57;17.60;99.90
16767;DHT22;8501;49.926;8.404;2023-05-07T07:11:23;17.60;99.90
16767;DHT22;8501;49.926;8.404;2023-05-07T07:13:48;17.60;99.90
16767;DHT22;8501;49.926;8.404;2023-05-07T07:16:14;17.60;99.90
16767;DHT22;8501;49.926;8.404;2023-05-07T07:18:40;17.70;99.90
16767;DHT22;8501;49.926;8.404;2023-05-07T07:21:05;17.60;99.90
16767;DHT22;8501;49.926;8.404;2023-05-07T07:23:31;17.70;99.90
16767;DHT22;8501;49.926;8.404;2023-05-07T07:25:56;17.70;99.90
16767;DHT22;8501;49.926;8.404;2023-05-07T07:28:22;17.70;99.90
16767;DHT22;8501;49.926;8.404;2023-05-07T07:30:47;17.70;99.90
16767;DHT22;8501;49.926;8.404;2023-05-07T07:33:13;17.70;99.90
16767;DHT22;8501;49.926;8.404;2023-05-07T07:35:39;17.70;99.90
16767;DHT22;8501;49.926;8.404;2023-05-07T07:38:05;17.80;99.90
16767;DHT22;8501;49.926;8.404;2023-05-07T07:40:31;17.70;99.90
16767;DHT22;8501;49.926;8.404;2023-05-07T07:42:57;17.80;99.90
16767;DHT22;8501;49.926;8.404;2023-05-07T07:45:22;17.80;99.90
16767;DHT22;8501;49.926;8.404;2023-05-07T07:47:48;17.80;99.90
16767;DHT22;8501;49.926;8.404;2023-05-07T07:50:14;17.80;99.90
16767;DHT22;8501;49.926;8.404;2023-05-07T07:52:39;17.90;99.90
16767;DHT22;8501;49.926;8.404;2023-05-07T07:55:06;17.80;99.90
16767;DHT22;8501;49.926;8.404;2023-05-07T07:57:32;17.80;99.90
16767;DHT22;8501;49.926;8.404;2023-05-07T07:59:58;17.90;99.90
16767;DHT22;8501;49.926;8.404;2023-05-07T08:02:23;17.90;99.90
16767;DHT22;8501;49.926;8.404;2023-05-07T08:04:49;17.90;99.90
16767;DHT22;8501;49.926;8.404;2023-05-07T08:07:14;17.90;99.90
16767;DHT22;8501;49.926;8.404;2023-05-07T08:09:40;17.90;99.90
16767;DHT22;8501;49.926;8.404;2023-05-07T08:12:07;18.00;99.90
16767;DHT22;8501;49.926;8.404;2023-05-07T08:14:33;18.00;99.90
16767;DHT22;8501;49.926;8.404;2023-05-07T08:16:59;18.10;99.90
16767;DHT22;8501;49.926;8.404;2023-05-07T08:19:24;18.10;99.90
16767;DHT22;8501;49.926;8.404;2023-05-07T08:21:50;18.10;99.90
16767;DHT22;8501;49.926;8.404;2023-05-07T08:24:16;18.10;99.90
16767;DHT22;8501;49.926;8.404;2023-05-07T08:26:41;18.10;99.90
16767;DHT22;8501;49.926;8.404;2023-05-07T08:29:07;18.10;99.90
16767;DHT22;8501;49.926;8.404;2023-05-07T08:31:32;18.20;99.90
16767;DHT22;8501;49.926;8.404;2023-05-07T08:33:58;18.20;99.90
16767;DHT22;8501;49.926;8.404;2023-05-07T08:36:24;18.20;99.90
16767;DHT22;8501;49.926;8.404;2023-05-07T08:38:51;18.30;99.90
16767;DHT22;8501;49.926;8.404;2023-05-07T08:41:17;18.30;99.90
16767;DHT22;8501;49.926;8.404;2023-05-07T08:43:47;18.40;99.90
16767;DHT22;8501;49.926;8.404;2023-05-07T08:46:16;18.40;99.90
16767;DHT22;8501;49.926;8.404;2023-05-07T08:48:42;18.40;99.90
16767;DHT22;8501;49.926;8.404;2023-05-07T08:51:13;18.50;99.90
16767;DHT22;8501;49.926;8.404;2023-05-07T08:53:41;18.50;99.90
16767;DHT22;8501;49.926;8.404;2023-05-07T08:56:08;18.60;99.90
16767;DHT22;8501;49.926;8.404;2023-05-07T08:58:34;18.60;99.90
16767;DHT22;8501;49.926;8.404;2023-05-07T09:01:07;18.70;99.90
16767;DHT22;8501;49.926;8.404;2023-05-07T09:03:33;18.70;99.90
16767;DHT22;8501;49.926;8.404;2023-05-07T09:05:58;18.70;99.90
16767;DHT22;8501;49.926;8.404;2023-05-07T09:08:25;18.80;99.90
16767;DHT22;8501;49.926;8.404;2023-05-07T09:10:52;18.90;99.90
16767;DHT22;8501;49.926;8.404;2023-05-07T09:13:17;18.90;99.90
16767;DHT22;8501;49.926;8.404;2023-05-07T09:15:43;19.00;99.90
16767;DHT22;8501;49.926;8.404;2023-05-07T09:18:09;19.00;99.90
16767;DHT22;8501;49.926;8.404;2023-05-07T09:20:36;19.10;99.90
16767;DHT22;8501;49.926;8.404;2023-05-07T09:23:02;19.10;99.90
16767;DHT22;8501;49.926;8.404;2023-05-07T09:25:32;19.20;99.90
16767;DHT22;8501;49.926;8.404;2023-05-07T09:27:58;19.20;99.90
16767;DHT22;8501;49.926;8.404;2023-05-07T09:30:30;19.30;99.90
16767;DHT22;8501;49.926;8.404;2023-05-07T09:32:58;19.30;99.90
16767;DHT22;8501;49.926;8.404;2023-05-07T09:35:25;19.30;99.90
16767;DHT22;8501;49.926;8.404;2023-05-07T09:37:53;19.40;99.90
16767;DHT22;8501;49.926;8.404;2023-05-07T09:40:21;19.40;99.90
16767;DHT22;8501;49.926;8.404;2023-05-07T09:42:47;19.40;99.90
16767;DHT22;8501;49.926;8.404;2023-05-07T09:45:13;19.50;99.90
16767;DHT22;8501;49.926;8.404;2023-05-07T09:47:39;19.60;99.90
16767;DHT22;8501;49.926;8.404;2023-05-07T09:50:08;19.70;99.90
16767;DHT22;8501;49.926;8.404;2023-05-07T09:52:36;19.80;99.90
16767;DHT22;8501;49.926;8.404;2023-05-07T09:55:02;19.80;99.90
16767;DHT22;8501;49.926;8.404;2023-05-07T09:57:29;19.80;99.90
16767;DHT22;8501;49.926;8.404;2023-05-07T09:59:56;19.90;99.90
16767;DHT22;8501;49.926;8.404;2023-05-07T10:02:23;19.90;99.90
16767;DHT22;8501;49.926;8.404;2023-05-07T10:04:51;20.00;99.90
16767;DHT22;8501;49.926;8.404;2023-05-07T10:07:17;20.10;99.90
16767;DHT22;8501;49.926;8.404;2023-05-07T10:09:43;20.10;99.90
16767;DHT22;8501;49.926;8.404;2023-05-07T10:12:10;20.10;99.90
16767;DHT22;8501;49.926;8.404;2023-05-07T10:14:36;20.20;99.90
16767;DHT22;8501;49.926;8.404;2023-05-07T10:17:02;20.30;99.90
16767;DHT22;8501;49.926;8.404;2023-05-07T10:19:29;20.30;99.90
16767;DHT22;8501;49.926;8.404;2023-05-07T10:21:56;20.30;99.90
16767;DHT22;8501;49.926;8.404;2023-05-07T10:24:26;20.30;99.90
16767;DHT22;8501;49.926;8.404;2023-05-07T10:26:53;20.40;99.90
16767;DHT22;8501;49.926;8.404;2023-05-07T10:29:32;20.40;99.90
16767;DHT22;8501;49.926;8.404;2023-05-07T10:32:24;20.50;99.90
16767;DHT22;8501;49.926;8.404;2023-05-07T10:34:56;20.60;99.90
16767;DHT22;8501;49.926;8.404;2023-05-07T10:37:25;20.70;99.90
16767;DHT22;8501;49.926;8.404;2023-05-07T10:39:51;20.90;99.90
16767;DHT22;8501;49.926;8.404;2023-05-07T10:42:17;20.90;99.90
16767;DHT22;8501;49.926;8.404;2023-05-07T10:44:43;20.90;99.90
16767;DHT22;8501;49.926;8.404;2023-05-07T10:47:13;21.00;99.90
16767;DHT22;8501;49.926;8.404;2023-05-07T10:52:30;21.30;99.90
16767;DHT22;8501;49.926;8.404;2023-05-07T10:57:40;21.60;99.90
16767;DHT22;8501;49.926;8.404;2023-05-07T11:05:28;21.80;99.90
16767;DHT22;8501;49.926;8.404;2023-05-07T11:08:02;22.00;99.90
16767;DHT22;8501;49.926;8.404;2023-05-07T11:10:52;22.10;99.90
16767;DHT22;8501;49.926;8.404;2023-05-07T11:13:40;22.20;99.90
16767;DHT22;8501;49.926;8.404;2023-05-07T11:16:17;22.20;99.90
16767;DHT22;8501;49.926;8.404;2023-05-07T11:18:51;22.40;99.90
16767;DHT22;8501;49.926;8.404;2023-05-07T11:21:38;22.40;99.90
16767;DHT22;8501;49.926;8.404;2023-05-07T11:24:06;22.40;99.90
16767;DHT22;8501;49.926;8.404;2023-05-07T11:26:43;22.40;99.90
16767;DHT22;8501;49.926;8.404;2023-05-07T11:31:42;22.50;99.90
16767;DHT22;8501;49.926;8.404;2023-05-07T11:34:08;22.50;99.90
16767;DHT22;8501;49.926;8.404;2023-05-07T11:36:34;22.60;99.90
16767;DHT22;8501;49.926;8.404;2023-05-07T11:39:00;22.50;99.90
16767;DHT22;8501;49.926;8.404;2023-05-07T11:41:36;22.50;99.90
16767;DHT22;8501;49.926;8.404;2023-05-07T11:44:04;22.50;99.90
16767;DHT22;8501;49.926;8.404;2023-05-07T11:46:30;22.60;99.90
16767;DHT22;8501;49.926;8.404;2023-05-07T11:48:56;22.50;99.90
16767;DHT22;8501;49.926;8.404;2023-05-07T11:51:25;22.50;99.90
16767;DHT22;8501;49.926;8.404;2023-05-07T11:53:52;22.60;99.90
16767;DHT22;8501;49.926;8.404;2023-05-07T11:56:18;22.60;99.90
16767;DHT22;8501;49.926;8.404;2023-05-07T11:58:45;22.70;99.90
16767;DHT22;8501;49.926;8.404;2023-05-07T12:01:12;22.70;99.90
16767;DHT22;8501;49.926;8.404;2023-05-07T12:03:43;22.70;99.90
16767;DHT22;8501;49.926;8.404;2023-05-07T12:06:10;22.70;99.90
16767;DHT22;8501;49.926;8.404;2023-05-07T12:08:38;22.70;99.90
16767;DHT22;8501;49.926;8.404;2023-05-07T12:11:07;22.80;99.90
16767;DHT22;8501;49.926;8.404;2023-05-07T12:13:34;22.80;99.90
16767;DHT22;8501;49.926;8.404;2023-05-07T12:15:59;22.80;99.90
16767;DHT22;8501;49.926;8.404;2023-05-07T12:18:25;23.00;99.90
16767;DHT22;8501;49.926;8.404;2023-05-07T12:20:52;23.10;99.90
16767;DHT22;8501;49.926;8.404;2023-05-07T12:23:17;23.10;99.90
16767;DHT22;8501;49.926;8.404;2023-05-07T12:25:43;23.20;99.90
16767;DHT22;8501;49.926;8.404;2023-05-07T12:28:16;23.30;99.90
16767;DHT22;8501;49.926;8.404;2023-05-07T12:30:43;23.30;99.90
16767;DHT22;8501;49.926;8.404;2023-05-07T12:33:09;23.30;99.90
16767;DHT22;8501;49.926;8.404;2023-05-07T12:35:42;23.30;99.90
16767;DHT22;8501;49.926;8.404;2023-05-07T12:38:09;23.30;99.90
16767;DHT22;8501;49.926;8.404;2023-05-07T12:43:06;23.50;99.90
16767;DHT22;8501;49.926;8.404;2023-05-07T12:45:37;23.50;99.90
16767;DHT22;8501;49.926;8.404;2023-05-07T12:48:03;23.50;99.90
16767;DHT22;8501;49.926;8.404;2023-05-07T12:50:32;23.50;99.90
16767;DHT22;8501;49.926;8.404;2023-05-07T12:52:58;23.40;99.90
16767;DHT22;8501;49.926;8.404;2023-05-07T12:55:24;23.40;99.90
16767;DHT22;8501;49.926;8.404;2023-05-07T12:57:50;23.40;99.90
16767;DHT22;8501;49.926;8.404;2023-05-07T13:00:17;23.50;99.90
16767;DHT22;8501;49.926;8.404;2023-05-07T13:02:43;23.50;99.90
16767;DHT22;8501;49.926;8.404;2023-05-07T13:05:09;23.60;99.90
16767;DHT22;8501;49.926;8.404;2023-05-07T13:07:35;23.70;99.90
16767;DHT22;8501;49.926;8.404;2023-05-07T13:10:02;23.90;99.90
16767;DHT22;8501;49.926;8.404;2023-05-07T13:12:28;24.00;99.90
16767;DHT22;8501;49.926;8.404;2023-05-07T13:14:53;24.00;99.90
16767;DHT22;8501;49.926;8.404;2023-05-07T13:17:19;24.20;99.90
16767;DHT22;8501;49.926;8.404;2023-05-07T13:19:44;24.20;99.90
16767;DHT22;8501;49.926;8.404;2023-05-07T13:22:10;24.20;99.90
16767;DHT22;8501;49.926;8.404;2023-05-07T13:24:36;24.30;99.90
16767;DHT22;8501;49.926;8.404;2023-05-07T13:27:01;24.30;99.90
16767;DHT22;8501;49.926;8.404;2023-05-07T13:29:28;24.40;99.90
16767;DHT22;8501;49.926;8.404;2023-05-07T13:31:57;24.50;99.90
16767;DHT22;8501;49.926;8.404;2023-05-07T13:34:22;24.50;99.90
16767;DHT22;8501;49.926;8.404;2023-05-07T13:36:48;24.70;99.90
16767;DHT22;8501;49.926;8.404;2023-05-07T13:39:13;24.80;99.90
16767;DHT22;8501;49.926;8.404;2023-05-07T13:41:39;24.90;99.90
16767;DHT22;8501;49.926;8.404;2023-05-07T13:44:04;25.00;99.90
16767;DHT22;8501;49.926;8.404;2023-05-07T13:46:30;24.90;99.90
16767;DHT22;8501;49.926;8.404;2023-05-07T13:48:56;25.00;99.90
16767;DHT22;8501;49.926;8.404;2023-05-07T13:51:21;25.10;99.90
16767;DHT22;8501;49.926;8.404;2023-05-07T13:53:47;25.20;99.90
16767;DHT22;8501;49.926;8.404;2023-05-07T13:56:13;25.30;99.90
16767;DHT22;8501;49.926;8.404;2023-05-07T13:58:39;25.30;99.90
16767;DHT22;8501;49.926;8.404;2023-05-07T14:01:05;25.30;99.90
16767;DHT22;8501;49.926;8.404;2023-05-07T14:03:31;25.20;99.90
16767;DHT22;8501;49.926;8.404;2023-05-07T14:05:59;25.10;99.90
16767;DHT22;8501;49.926;8.404;2023-05-07T14:08:25;25.00;99.90
16767;DHT22;8501;49.926;8.404;2023-05-07T14:10:51;24.90;99.90
16767;DHT22;8501;49.926;8.404;2023-05-07T14:13:17;24.80;99.90
16767;DHT22;8501;49.926;8.404;2023-05-07T14:15:43;24.80;99.90
16767;DHT22;8501;49.926;8.404;2023-05-07T14:18:14;24.80;99.90
16767;DHT22;8501;49.926;8.404;2023-05-07T14:20:39;24.80;99.90
16767;DHT22;8501;49.926;8.404;2023-05-07T14:23:05;24.70;99.90
16767;DHT22;8501;49.926;8.404;2023-05-07T14:25:31;24.60;99.90
16767;DHT22;8501;49.926;8.404;2023-05-07T14:27:57;24.60;99.90
16767;DHT22;8501;49.926;8.404;2023-05-07T14:30:22;24.60;99.90
16767;DHT22;8501;49.926;8.404;2023-05-07T14:32:50;24.50;99.90
16767;DHT22;8501;49.926;8.404;2023-05-07T14:35:16;24.50;99.90
16767;DHT22;8501;49.926;8.404;2023-05-07T14:37:42;24.60;99.90
16767;DHT22;8501;49.926;8.404;2023-05-07T14:40:08;24.70;99.90
16767;DHT22;8501;49.926;8.404;2023-05-07T14:42:33;24.70;99.90
16767;DHT22;8501;49.926;8.404;2023-05-07T14:44:59;24.60;99.90
16767;DHT22;8501;49.926;8.404;2023-05-07T14:47:24;24.50;99.90
16767;DHT22;8501;49.926;8.404;2023-05-07T14:49:50;24.50;99.90
16767;DHT22;8501;49.926;8.404;2023-05-07T14:52:16;24.30;99.90
16767;DHT22;8501;49.926;8.404;2023-05-07T14:54:41;24.30;99.90
16767;DHT22;8501;49.926;8.404;2023-05-07T14:57:09;24.30;99.90
16767;DHT22;8501;49.926;8.404;2023-05-07T14:59:35;24.30;99.90
16767;DHT22;8501;49.926;8.404;2023-05-07T15:02:01;24.30;99.90
16767;DHT22;8501;49.926;8.404;2023-05-07T15:04:26;24.20;99.90
16767;DHT22;8501;49.926;8.404;2023-05-07T15:06:52;24.20;99.90
16767;DHT22;8501;49.926;8.404;2023-05-07T15:09:19;24.20;99.90
16767;DHT22;8501;49.926;8.404;2023-05-07T15:11:45;24.10;99.90
16767;DHT22;8501;49.926;8.404;2023-05-07T15:14:10;24.10;99.90
16767;DHT22;8501;49.926;8.404;2023-05-07T15:16:35;24.00;99.90
16767;DHT22;8501;49.926;8.404;2023-05-07T15:19:01;24.00;99.90
16767;DHT22;8501;49.926;8.404;2023-05-07T15:21:27;23.90;99.90
16767;DHT22;8501;49.926;8.404;2023-05-07T15:23:52;23.90;99.90
16767;DHT22;8501;49.926;8.404;2023-05-07T15:26:18;23.90;99.90
16767;DHT22;8501;49.926;8.404;2023-05-07T15:28:43;23.90;99.90
16767;DHT22;8501;49.926;8.404;2023-05-07T15:31:09;23.90;99.90
16767;DHT22;8501;49.926;8.404;2023-05-07T15:33:34;23.80;99.90
16767;DHT22;8501;49.926;8.404;2023-05-07T15:36:00;23.90;99.90
16767;DHT22;8501;49.926;8.404;2023-05-07T15:38:26;23.80;99.90
16767;DHT22;8501;49.926;8.404;2023-05-07T15:40:52;23.80;99.90
16767;DHT22;8501;49.926;8.404;2023-05-07T15:43:17;23.80;99.90
16767;DHT22;8501;49.926;8.404;2023-05-07T15:45:43;23.70;99.90
16767;DHT22;8501;49.926;8.404;2023-05-07T15:48:09;23.70;99.90
16767;DHT22;8501;49.926;8.404;2023-05-07T15:50:35;23.70;99.90
16767;DHT22;8501;49.926;8.404;2023-05-07T15:53:01;23.60;99.90
16767;DHT22;8501;49.926;8.404;2023-05-07T15:55:28;23.60;99.90